createdAt,value
2019-01-19T00:00:36.648Z,84.76
2019-01-19T00:04:38.273Z,84.17
2019-01-19T00:08:39.617Z,84.63
2019-01-19T00:12:22.448Z,85.04
2019-01-19T00:15:51.863Z,85.42
2019-01-19T00:19:45.182Z,84.87
2019-01-19T00:23:31.471Z,85.02
2019-01-19T00:27:16.835Z,84.91
2019-01-19T00:31:07.968Z,84.42
2019-01-19T00:34:55.742Z,84.68
2019-01-19T00:38:33.485Z,85.08
2019-01-19T00:42:02.637Z,85.10
2019-01-19T00:45:51.193Z,84.63
2019-01-19T00:49:24.424Z,84.38
2019-01-19T00:53:06.768Z,84.89
2019-01-19T00:56:45.577Z,85.58
2019-01-19T00:59:57.404Z,85.21
2019-01-19T01:03:30.105Z,85.30
2019-01-19T01:07:03.328Z,85.57
2019-01-19T01:10:49.518Z,85.74
2019-01-19T01:14:43.499Z,85.62
2019-01-19T01:18:24.402Z,85.21
2019-01-19T01:22:26.474Z,85.45
2019-01-19T01:25:55.755Z,85.20
2019-01-19T01:30:01.207Z,85.43
2019-01-19T01:33:57.663Z,84.98
2019-01-19T01:37:35.438Z,84.89
2019-01-19T01:41:22.083Z,85.56
2019-01-19T01:44:48.733Z,85.24
2019-01-19T01:48:29.093Z,84.80
2019-01-19T01:52:13.870Z,84.12
2019-01-19T01:55:45.865Z,84.77
2019-01-19T01:59:57.205Z,84.91
2019-01-19T02:03:32.969Z,85.30
2019-01-19T02:07:23.290Z,85.25
2019-01-19T02:11:04.611Z,85.54
2019-01-19T02:15:01.541Z,85.41
2019-01-19T02:18:40.931Z,84.91
2019-01-19T02:22:31.172Z,84.36
2019-01-19T02:26:15.437Z,84.12
2019-01-19T02:30:09.035Z,83.82
2019-01-19T02:33:42.506Z,84.51
2019-01-19T02:37:19.074Z,85.09
2019-01-19T02:41:00.792Z,85.25
2019-01-19T02:44:48.245Z,85.59
2019-01-19T02:48:42.015Z,84.41
2019-01-19T02:52:38.633Z,84.99
2019-01-19T02:56:35.772Z,85.13
2019-01-19T03:00:18.631Z,84.90
2019-01-19T03:03:56.378Z,84.73
2019-01-19T03:08:14.152Z,84.83
2019-01-19T03:12:00.868Z,84.84
2019-01-19T03:15:53.232Z,84.73
2019-01-19T03:19:43.263Z,84.32
2019-01-19T03:23:35.686Z,84.84
2019-01-19T03:27:19.394Z,85.32
2019-01-19T03:30:56.067Z,84.52
2019-01-19T03:34:46.474Z,84.38
2019-01-19T03:38:52.450Z,84.56
2019-01-19T03:42:25.745Z,84.73
2019-01-19T03:46:02.554Z,83.85
2019-01-19T03:49:44.682Z,84.33
2019-01-19T03:53:23.661Z,84.88
2019-01-19T03:57:01.249Z,85.31
2019-01-19T04:00:23.081Z,85.09
2019-01-19T04:04:08.016Z,85.03
2019-01-19T04:07:39.107Z,84.81
2019-01-19T04:11:15.339Z,84.89
2019-01-19T04:15:02.816Z,85.39
2019-01-19T04:18:32.236Z,85.36
2019-01-19T04:21:45.885Z,85.39
2019-01-19T04:25:08.727Z,85.24
2019-01-19T04:28:17.863Z,85.05
2019-01-19T04:31:24.730Z,85.26
2019-01-19T04:34:31.494Z,85.35
2019-01-19T04:37:38.257Z,85.58
2019-01-19T04:40:45.159Z,85.39
2019-01-19T04:43:51.834Z,85.19
2019-01-19T04:46:58.389Z,85.49
2019-01-19T04:50:05.493Z,84.89
2019-01-19T04:53:12.192Z,84.89
2019-01-19T04:56:18.706Z,85.36
2019-01-19T04:59:25.428Z,84.89
2019-01-19T05:02:32.206Z,84.90
2019-01-19T05:05:38.446Z,84.75
2019-01-19T05:08:45.147Z,84.96
2019-01-19T05:11:51.624Z,84.84
2019-01-19T05:14:58.288Z,84.67
2019-01-19T05:18:05.387Z,84.68
2019-01-19T05:21:12.276Z,84.54
2019-01-19T05:24:19.023Z,84.66
2019-01-19T05:27:25.489Z,84.57
2019-01-19T05:30:32.356Z,84.74
2019-01-19T05:33:39.277Z,84.70
2019-01-19T05:36:45.787Z,84.81
2019-01-19T05:39:52.316Z,84.59
2019-01-19T05:42:58.971Z,85.04
2019-01-19T05:46:05.962Z,85.35
2019-01-19T05:49:12.666Z,85.92
2019-01-19T05:52:19.044Z,85.94
2019-01-19T05:55:25.788Z,85.37
2019-01-19T05:58:32.163Z,84.72
2019-01-19T06:01:39.561Z,84.87
2019-01-19T06:04:46.279Z,85.06
2019-01-19T06:07:54.211Z,84.48
2019-01-19T06:11:00.801Z,84.05
2019-01-19T06:14:07.471Z,84.40
2019-01-19T06:17:13.882Z,84.27
2019-01-19T06:20:20.509Z,84.48
2019-01-19T06:23:26.904Z,84.61
2019-01-19T06:26:33.719Z,84.62
2019-01-19T06:29:41.644Z,84.53
2019-01-19T06:32:48.238Z,84.08
2019-01-19T06:35:55.018Z,84.21
2019-01-19T06:39:01.667Z,84.98
2019-01-19T06:42:09.835Z,85.56
2019-01-19T06:45:22.144Z,85.06
2019-01-19T06:48:28.961Z,84.85
2019-01-19T06:51:38.248Z,84.85
2019-01-19T06:54:44.905Z,85.15
2019-01-19T06:57:51.980Z,85.74
2019-01-19T07:00:58.761Z,85.81
2019-01-19T07:04:05.982Z,85.06
2019-01-19T07:07:12.693Z,84.06
2019-01-19T07:10:21.378Z,83.90
2019-01-19T07:13:28.270Z,84.35
2019-01-19T07:16:35.370Z,84.46
2019-01-19T07:19:41.931Z,83.12
2019-01-19T07:22:48.608Z,83.23
2019-01-19T07:25:56.027Z,83.14
2019-01-19T07:29:04.053Z,82.35
2019-01-19T07:32:11.822Z,82.87
2019-01-19T07:35:20.051Z,83.09
2019-01-19T07:38:27.173Z,82.40
2019-01-19T07:41:34.553Z,82.83
2019-01-19T07:44:41.730Z,83.11
2019-01-19T07:47:49.291Z,82.77
2019-01-19T07:50:56.020Z,82.80
2019-01-19T07:54:02.867Z,82.81
2019-01-19T07:57:11.196Z,82.84
2019-01-19T08:00:21.979Z,82.91
2019-01-19T08:03:28.936Z,83.18
2019-01-19T08:06:36.365Z,82.92
2019-01-19T08:09:43.089Z,82.51
2019-01-19T08:12:50.046Z,82.64
2019-01-19T08:15:56.294Z,82.98
2019-01-19T08:19:03.722Z,82.05
2019-01-19T08:22:10.086Z,81.04
2019-01-19T08:25:16.894Z,81.47
2019-01-19T08:28:23.286Z,81.18
2019-01-19T08:31:30.238Z,80.63
2019-01-19T08:34:39.550Z,80.79
2019-01-19T08:37:46.756Z,80.20
2019-01-19T08:40:53.863Z,79.89
2019-01-19T08:44:03.044Z,80.14
2019-01-19T08:47:09.647Z,80.24
2019-01-19T08:50:16.419Z,80.38
2019-01-19T08:53:23.024Z,81.13
2019-01-19T08:56:29.778Z,81.17
2019-01-19T08:59:36.674Z,79.79
2019-01-19T09:02:43.433Z,79.47
2019-01-19T09:05:50.660Z,79.80
2019-01-19T09:08:58.506Z,79.95
2019-01-19T09:12:05.773Z,79.99
2019-01-19T09:15:15.756Z,80.33
2019-01-19T09:18:22.594Z,79.70
2019-01-19T09:21:29.671Z,79.42
2019-01-19T09:24:36.217Z,79.40
2019-01-19T09:27:43.461Z,78.84
2019-01-19T09:30:50.763Z,78.58
2019-01-19T09:33:58.235Z,78.51
2019-01-19T09:37:04.611Z,78.27
2019-01-19T09:40:12.949Z,77.93
2019-01-19T09:43:19.732Z,76.71
2019-01-19T09:46:26.073Z,75.86
2019-01-19T09:49:32.896Z,74.60
2019-01-19T09:52:39.283Z,73.54
2019-01-19T09:55:46.203Z,72.89
2019-01-19T09:58:53.127Z,72.17
2019-01-19T10:02:00.413Z,71.56
2019-01-19T10:05:10.782Z,72.37
2019-01-19T10:08:17.176Z,71.87
2019-01-19T10:11:23.745Z,72.10
2019-01-19T10:14:30.969Z,70.39
2019-01-19T10:17:37.668Z,69.39
2019-01-19T10:20:44.426Z,68.36
2019-01-19T10:23:51.132Z,67.99
2019-01-19T10:26:57.917Z,66.62
2019-01-19T10:30:05.276Z,67.27
2019-01-19T10:33:12.380Z,65.25
2019-01-19T10:36:19.149Z,64.93
2019-01-19T10:39:26.368Z,64.75
2019-01-19T10:42:32.754Z,63.46
2019-01-19T10:45:40.146Z,62.94
2019-01-19T10:48:46.981Z,61.51
2019-01-19T10:51:59.386Z,61.41
2019-01-19T10:55:03.170Z,60.90
2019-01-19T10:58:10.010Z,57.25
2019-01-19T11:01:16.694Z,56.05
2019-01-19T11:04:24.545Z,55.41
2019-01-19T11:07:31.405Z,57.20
2019-01-19T11:10:38.437Z,56.81
2019-01-19T11:13:46.123Z,56.98
2019-01-19T11:16:53.063Z,53.00
2019-01-19T11:20:00.478Z,55.41
2019-01-19T11:23:07.490Z,52.97
2019-01-19T11:26:14.102Z,52.00
2019-01-19T11:29:21.843Z,51.69
2019-01-19T11:32:28.935Z,54.40
2019-01-19T11:35:36.460Z,54.42
2019-01-19T11:38:43.096Z,55.12
2019-01-19T11:41:50.436Z,56.41
2019-01-19T11:44:57.190Z,56.74
2019-01-19T11:48:03.866Z,54.17
2019-01-19T11:51:11.753Z,53.89
2019-01-19T11:54:18.201Z,55.43
2019-01-19T11:57:24.926Z,56.11
2019-01-19T12:00:33.320Z,54.27
2019-01-19T12:03:39.980Z,55.99
2019-01-19T12:06:46.979Z,57.26
2019-01-19T12:09:53.481Z,55.27
2019-01-19T12:13:00.798Z,54.07
2019-01-19T12:16:07.422Z,54.92
2019-01-19T12:19:13.839Z,55.98
2019-01-19T12:22:20.228Z,54.36
2019-01-19T12:25:26.677Z,57.47
2019-01-19T12:28:34.513Z,55.93
2019-01-19T12:31:41.531Z,54.86
2019-01-19T12:34:48.272Z,54.52
2019-01-19T12:37:55.158Z,55.60
2019-01-19T12:41:01.797Z,57.01
2019-01-19T12:44:08.997Z,58.18
2019-01-19T12:47:15.891Z,57.53
2019-01-19T12:50:24.397Z,57.45
2019-01-19T12:53:31.309Z,57.19
2019-01-19T12:56:39.883Z,55.37
2019-01-19T12:59:46.556Z,57.08
2019-01-19T13:02:53.310Z,57.60
2019-01-19T13:06:38.673Z,55.81
2019-01-19T13:09:57.789Z,59.88
2019-01-19T13:13:08.863Z,59.41
2019-01-19T13:17:05.978Z,58.18
2019-01-19T13:21:01.859Z,58.58
2019-01-19T13:24:26.949Z,55.59
2019-01-19T13:27:55.767Z,58.36
2019-01-19T13:31:32.752Z,57.24
2019-01-19T13:35:26.972Z,56.50
2019-01-19T13:39:00.846Z,55.98
2019-01-19T13:42:41.303Z,56.56
2019-01-19T13:46:15.990Z,57.48
2019-01-19T13:50:07.680Z,60.24
2019-01-19T13:53:46.248Z,59.97
2019-01-19T13:57:20.927Z,59.85
2019-01-19T14:01:09.195Z,61.95
2019-01-19T14:04:27.207Z,60.05
2019-01-19T14:08:18.819Z,61.41
2019-01-19T14:11:52.160Z,61.50
2019-01-19T14:15:33.831Z,61.55
2019-01-19T14:19:21.264Z,62.19
2019-01-19T14:23:11.044Z,61.75
2019-01-19T14:26:42.903Z,60.68
2019-01-19T14:30:29.358Z,63.24
2019-01-19T14:34:17.676Z,62.69
2019-01-19T14:38:11.512Z,61.07
2019-01-19T14:41:46.707Z,60.95
2019-01-19T14:45:13.934Z,64.05
2019-01-19T14:48:56.584Z,64.18
2019-01-19T14:52:39.975Z,65.49
2019-01-19T14:56:19.356Z,66.22
2019-01-19T14:59:35.260Z,67.20
2019-01-19T15:03:24.854Z,67.90
2019-01-19T15:06:58.457Z,69.65
2019-01-19T15:10:41.232Z,70.72
2019-01-19T15:14:10.103Z,69.87
2019-01-19T15:17:23.460Z,71.33
2019-01-19T15:20:56.168Z,72.76
2019-01-19T15:24:26.976Z,73.81
2019-01-19T15:28:17.084Z,76.45
2019-01-19T15:31:50.951Z,75.46
2019-01-19T15:35:53.340Z,76.35
2019-01-19T15:39:13.072Z,79.08
2019-01-19T15:42:47.357Z,76.92
2019-01-19T15:46:17.329Z,76.96
2019-01-19T15:50:00.774Z,78.49
2019-01-19T15:53:53.767Z,79.91
2019-01-19T15:57:17.712Z,77.44
2019-01-19T16:00:57.954Z,78.74
2019-01-19T16:04:45.769Z,79.27
2019-01-19T16:08:36.046Z,79.82
2019-01-19T16:12:17.230Z,80.86
2019-01-19T16:16:32.503Z,80.48
2019-01-19T16:20:15.593Z,80.98
2019-01-19T16:23:48.429Z,80.38
2019-01-19T16:27:07.024Z,79.48
2019-01-19T16:31:01.016Z,80.29
2019-01-19T16:34:57.697Z,79.86
2019-01-19T16:38:48.276Z,80.41
2019-01-19T16:42:16.874Z,80.36
2019-01-19T16:46:12.576Z,80.94
2019-01-19T16:50:05.321Z,80.55
2019-01-19T16:53:24.943Z,80.00
2019-01-19T16:57:07.834Z,80.62
2019-01-19T17:00:52.517Z,81.51
2019-01-19T17:04:38.818Z,81.41
2019-01-19T17:08:22.296Z,80.66
2019-01-19T17:11:57.633Z,81.63
2019-01-19T17:15:54.523Z,82.79
2019-01-19T17:19:24.874Z,81.42
2019-01-19T17:23:04.610Z,81.56
2019-01-19T17:26:47.228Z,81.15
2019-01-19T17:30:27.270Z,81.19
2019-01-19T17:33:47.249Z,81.67
2019-01-19T17:37:30.535Z,82.62
2019-01-19T17:41:16.103Z,83.10
2019-01-19T17:45:01.018Z,82.61
2019-01-19T17:48:30.703Z,82.30
2019-01-19T17:52:26.705Z,83.26
2019-01-19T17:56:38.052Z,83.18
2019-01-19T18:00:09.606Z,83.53
2019-01-19T18:03:50.456Z,83.09
2019-01-19T18:07:47.778Z,83.10
2019-01-19T18:11:37.327Z,84.08
2019-01-19T18:15:25.634Z,82.54
2019-01-19T18:18:56.108Z,83.37
2019-01-19T18:22:42.203Z,83.11
2019-01-19T18:26:25.433Z,82.66
2019-01-19T18:30:08.240Z,83.61
2019-01-19T18:33:53.409Z,83.58
2019-01-19T18:37:47.589Z,83.49
2019-01-19T18:41:28.431Z,83.38
2019-01-19T18:44:59.307Z,83.39
2019-01-19T18:48:58.864Z,83.28
2019-01-19T18:53:00.242Z,82.81
2019-01-19T18:57:18.142Z,83.00
2019-01-19T19:00:57.521Z,83.98
2019-01-19T19:04:47.360Z,84.17
2019-01-19T19:08:20.245Z,84.13
2019-01-19T19:11:39.943Z,84.43
2019-01-19T19:15:22.364Z,85.04
2019-01-19T19:19:12.318Z,84.53
2019-01-19T19:22:40.319Z,84.31
2019-01-19T19:26:23.843Z,84.40
2019-01-19T19:30:11.182Z,84.28
2019-01-19T19:34:04.445Z,83.81
2019-01-19T19:37:48.909Z,84.12
2019-01-19T19:41:42.970Z,84.08
2019-01-19T19:45:27.179Z,84.03
2019-01-19T19:49:05.596Z,83.83
2019-01-19T19:52:14.361Z,83.62
2019-01-19T19:55:19.152Z,83.15
2019-01-19T19:58:25.889Z,83.18
2019-01-19T20:01:33.153Z,83.85
2019-01-19T20:04:41.099Z,83.82
2019-01-19T20:07:49.335Z,84.15
2019-01-19T20:11:00.046Z,84.66
2019-01-19T20:14:12.339Z,83.37
2019-01-19T20:17:21.507Z,84.41
2019-01-19T20:20:30.117Z,85.49
2019-01-19T20:23:37.507Z,84.54
2019-01-19T20:26:48.168Z,84.07
2019-01-19T20:29:55.656Z,84.13
2019-01-19T20:33:03.816Z,84.09
2019-01-19T20:36:11.756Z,83.54
2019-01-19T20:39:20.231Z,83.99
2019-01-19T20:42:27.732Z,83.67
2019-01-19T20:45:34.798Z,83.86
2019-01-19T20:48:41.632Z,83.97
2019-01-19T20:51:48.360Z,83.92
2019-01-19T20:55:01.021Z,83.66
2019-01-19T20:58:07.442Z,83.51
2019-01-19T21:01:15.399Z,83.48
2019-01-19T21:04:22.856Z,83.64
2019-01-19T21:07:30.218Z,84.03
2019-01-19T21:10:38.930Z,83.61
2019-01-19T21:13:47.486Z,83.24
2019-01-19T21:16:54.281Z,84.14
2019-01-19T21:20:02.387Z,84.37
2019-01-19T21:23:13.128Z,83.33
2019-01-19T21:26:20.450Z,82.94
2019-01-19T21:29:34.552Z,82.96
2019-01-19T21:32:41.640Z,83.45
2019-01-19T21:35:48.861Z,83.74
2019-01-19T21:38:55.945Z,83.50
2019-01-19T21:42:03.216Z,84.27
2019-01-19T21:45:14.266Z,84.48
2019-01-19T21:48:24.014Z,83.79
2019-01-19T21:51:30.873Z,83.69
2019-01-19T21:54:37.967Z,83.84
2019-01-19T21:57:44.793Z,83.20
2019-01-19T22:00:51.648Z,83.08
2019-01-19T22:03:58.189Z,83.46
2019-01-19T22:07:05.004Z,83.54
2019-01-19T22:10:14.230Z,83.45
2019-01-19T22:13:21.437Z,83.70
2019-01-19T22:16:27.854Z,83.37
2019-01-19T22:19:34.575Z,83.21
2019-01-19T22:22:41.114Z,83.57
2019-01-19T22:25:47.934Z,82.96
2019-01-19T22:28:54.650Z,82.85
2019-01-19T22:32:01.903Z,83.08
2019-01-19T22:35:09.670Z,83.19
2019-01-19T22:38:16.210Z,83.37
2019-01-19T22:41:22.888Z,83.49
2019-01-19T22:44:29.355Z,83.72
2019-01-19T22:47:36.644Z,84.04
2019-01-19T22:50:43.292Z,84.21
2019-01-19T22:53:49.862Z,83.51
2019-01-19T22:56:56.637Z,83.30
2019-01-19T23:00:03.649Z,83.67
2019-01-19T23:03:10.038Z,83.38
2019-01-19T23:06:17.531Z,83.65
2019-01-19T23:09:25.319Z,83.61
2019-01-19T23:12:32.632Z,84.32
2019-01-19T23:15:40.598Z,83.93
2019-01-19T23:18:47.868Z,83.79
2019-01-19T23:21:54.780Z,83.76
2019-01-19T23:25:01.350Z,83.76
2019-01-19T23:28:09.599Z,83.50
2019-01-19T23:31:19.272Z,83.33
2019-01-19T23:34:26.356Z,84.16
2019-01-19T23:37:32.899Z,84.08
2019-01-19T23:40:39.436Z,84.55
2019-01-19T23:43:46.730Z,84.64
2019-01-19T23:46:53.667Z,84.67
2019-01-19T23:50:00.314Z,84.38
2019-01-19T23:53:06.879Z,84.20
2019-01-19T23:56:13.594Z,83.79
2019-01-19T23:59:20.643Z,83.45
